createdAt,value
2018-02-07T00:00:12.633Z,27.20
2018-02-07T00:02:40.242Z,24.07
2018-02-07T00:05:07.767Z,25.00
2018-02-07T00:07:35.299Z,25.37
2018-02-07T00:10:02.911Z,23.20
2018-02-07T00:12:30.398Z,23.73
2018-02-07T00:14:57.986Z,24.27
2018-02-07T00:17:25.508Z,24.13
2018-02-07T00:19:53.048Z,24.00
2018-02-07T00:22:20.575Z,22.63
2018-02-07T00:24:48.885Z,22.07
2018-02-07T00:27:16.413Z,24.10
2018-02-07T00:29:43.985Z,24.07
2018-02-07T00:32:11.511Z,24.97
2018-02-07T00:34:39.061Z,22.87
2018-02-07T00:37:06.586Z,23.63
2018-02-07T00:39:34.145Z,24.50
2018-02-07T00:42:01.673Z,21.67
2018-02-07T00:44:29.221Z,23.03
2018-02-07T00:46:57.521Z,22.27
2018-02-07T00:49:25.837Z,24.37
2018-02-07T00:51:53.367Z,23.03
2018-02-07T00:54:20.917Z,23.30
2018-02-07T00:56:48.460Z,24.03
2018-02-07T00:59:15.990Z,24.30
2018-02-07T01:01:43.540Z,21.97
2018-02-07T01:04:11.082Z,24.73
2018-02-07T01:06:38.639Z,24.67
2018-02-07T01:09:06.164Z,22.50
2018-02-07T01:11:33.704Z,22.87
2018-02-07T01:14:01.236Z,24.47
2018-02-07T01:16:28.794Z,25.30
2018-02-07T01:18:56.350Z,23.43
2018-02-07T01:21:23.906Z,23.63
2018-02-07T01:23:51.461Z,23.10
2018-02-07T01:26:19.793Z,25.23
2018-02-07T01:28:47.326Z,23.83
2018-02-07T01:31:14.890Z,22.67
2018-02-07T01:33:42.437Z,23.10
2018-02-07T01:36:10.753Z,24.17
2018-02-07T01:38:38.319Z,24.10
2018-02-07T01:41:05.855Z,24.90
2018-02-07T01:43:33.414Z,24.27
2018-02-07T01:46:00.936Z,24.40
2018-02-07T01:48:29.266Z,24.57
2018-02-07T01:50:56.821Z,22.90
2018-02-07T01:53:24.370Z,23.37
2018-02-07T01:55:51.901Z,24.60
2018-02-07T01:58:20.223Z,23.13
2018-02-07T02:00:47.765Z,24.10
2018-02-07T02:03:15.319Z,24.13
2018-02-07T02:05:42.859Z,24.97
2018-02-07T02:08:10.404Z,22.93
2018-02-07T02:10:38.699Z,23.73
2018-02-07T02:13:06.250Z,23.33
2018-02-07T02:15:33.774Z,22.93
2018-02-07T02:18:01.319Z,22.10
2018-02-07T02:20:28.852Z,24.30
2018-02-07T02:22:57.150Z,23.13
2018-02-07T02:25:24.705Z,23.60
2018-02-07T02:27:52.236Z,24.00
2018-02-07T02:30:20.570Z,23.63
2018-02-07T02:32:48.114Z,24.83
2018-02-07T02:35:15.685Z,22.50
2018-02-07T02:37:43.208Z,24.27
2018-02-07T02:40:10.755Z,21.93
2018-02-07T02:42:38.275Z,23.07
2018-02-07T02:45:06.586Z,23.03
2018-02-07T02:47:34.120Z,23.60
2018-02-07T02:50:01.679Z,24.63
2018-02-07T02:52:29.986Z,24.10
2018-02-07T02:54:57.544Z,24.03
2018-02-07T02:57:25.063Z,22.20
2018-02-07T02:59:53.408Z,22.30
2018-02-07T03:02:20.953Z,23.97
2018-02-07T03:04:48.524Z,21.60
2018-02-07T03:07:16.079Z,24.30
2018-02-07T03:09:43.640Z,24.20
2018-02-07T03:12:11.186Z,23.83
2018-02-07T03:14:38.712Z,24.00
2018-02-07T03:17:06.269Z,22.83
2018-02-07T03:19:33.800Z,22.17
2018-02-07T03:22:02.108Z,22.47
2018-02-07T03:24:29.639Z,21.87
2018-02-07T03:26:57.962Z,24.03
2018-02-07T03:29:25.513Z,24.40
2018-02-07T03:31:53.077Z,22.47
2018-02-07T03:34:20.609Z,21.77
2018-02-07T03:36:48.214Z,20.87
2018-02-07T03:39:15.709Z,23.57
2018-02-07T03:41:44.028Z,21.27
2018-02-07T03:44:11.555Z,20.77
2018-02-07T03:46:39.874Z,22.17
2018-02-07T03:49:07.416Z,21.37
2018-02-07T03:51:34.946Z,20.60
2018-02-07T03:54:03.304Z,21.33
2018-02-07T03:56:31.603Z,20.37
2018-02-07T03:58:59.161Z,19.90
2018-02-07T04:01:26.707Z,21.80
2018-02-07T04:03:55.026Z,20.93
2018-02-07T04:06:22.551Z,20.13
2018-02-07T04:08:50.864Z,20.70
2018-02-07T04:11:18.384Z,21.33
2018-02-07T04:13:46.702Z,21.43
2018-02-07T04:16:14.225Z,21.17
2018-02-07T04:18:41.781Z,21.37
2018-02-07T04:21:10.069Z,21.53
2018-02-07T04:23:37.616Z,21.10
2018-02-07T04:26:05.150Z,21.50
2018-02-07T04:28:32.701Z,20.50
2018-02-07T04:31:00.234Z,21.53
2018-02-07T04:33:27.772Z,21.97
2018-02-07T04:35:55.845Z,23.37
2018-02-07T04:38:23.402Z,21.70
2018-02-07T04:40:50.935Z,22.33
2018-02-07T04:43:19.254Z,20.37
2018-02-07T04:45:46.823Z,23.60
2018-02-07T04:48:14.353Z,23.13
2018-02-07T04:50:41.902Z,22.10
2018-02-07T04:53:09.424Z,21.77
2018-02-07T04:55:36.981Z,20.97
2018-02-07T04:58:04.496Z,23.30
2018-02-07T05:00:32.048Z,21.43
2018-02-07T05:02:59.567Z,21.13
2018-02-07T05:05:27.890Z,21.73
2018-02-07T05:07:55.461Z,22.00
2018-02-07T05:10:23.004Z,21.03
2018-02-07T05:12:50.547Z,21.23
2018-02-07T05:15:18.106Z,21.47
2018-02-07T05:17:45.664Z,22.70
2018-02-07T05:20:13.217Z,23.10
2018-02-07T05:22:40.745Z,20.83
2018-02-07T05:25:09.814Z,19.80
2018-02-07T05:27:37.347Z,20.63
2018-02-07T05:30:04.902Z,21.47
2018-02-07T05:32:32.462Z,22.13
2018-02-07T05:35:00.017Z,23.00
2018-02-07T05:37:28.352Z,22.90
2018-02-07T05:39:56.676Z,21.63
2018-02-07T05:42:24.196Z,23.87
2018-02-07T05:44:52.519Z,22.93
2018-02-07T05:47:20.057Z,23.07
2018-02-07T05:49:48.438Z,23.10
2018-02-07T05:52:15.969Z,22.07
2018-02-07T05:54:44.269Z,21.27
2018-02-07T05:57:11.842Z,23.53
2018-02-07T05:59:39.375Z,22.37
2018-02-07T06:02:06.928Z,24.17
2018-02-07T06:04:34.479Z,21.20
2018-02-07T06:07:02.788Z,21.33
2018-02-07T06:09:30.321Z,22.90
2018-02-07T06:11:57.889Z,22.07
2018-02-07T06:14:25.437Z,23.20
2018-02-07T06:16:53.018Z,21.73
2018-02-07T06:19:20.624Z,20.87
2018-02-07T06:21:48.168Z,24.30
2018-02-07T06:24:15.696Z,25.63
2018-02-07T06:26:43.241Z,23.70
2018-02-07T06:29:10.763Z,22.17
2018-02-07T06:31:38.315Z,26.33
2018-02-07T06:34:05.849Z,24.43
2018-02-07T06:36:33.448Z,23.43
2018-02-07T06:39:01.745Z,25.07
2018-02-07T06:41:29.267Z,25.00
2018-02-07T06:43:56.825Z,25.77
2018-02-07T06:46:24.365Z,24.73
2018-02-07T06:48:51.930Z,26.10
2018-02-07T06:51:19.474Z,24.27
2018-02-07T06:53:47.028Z,22.63
2018-02-07T06:56:14.559Z,24.57
2018-02-07T06:58:42.107Z,22.30
2018-02-07T07:01:09.651Z,23.37
2018-02-07T07:03:37.972Z,24.13
2018-02-07T07:06:05.523Z,24.40
2018-02-07T07:08:33.861Z,24.70
2018-02-07T07:11:02.164Z,24.13
2018-02-07T07:13:29.765Z,24.53
2018-02-07T07:15:57.297Z,22.90
2018-02-07T07:18:24.851Z,22.23
2018-02-07T07:20:52.373Z,23.03
2018-02-07T07:23:20.697Z,23.33
2018-02-07T07:25:48.233Z,24.80
2018-02-07T07:28:15.817Z,24.60
2018-02-07T07:30:43.347Z,25.80
2018-02-07T07:33:10.888Z,24.20
2018-02-07T07:35:39.220Z,23.37
2018-02-07T07:38:06.753Z,25.37
2018-02-07T07:40:34.322Z,26.10
2018-02-07T07:43:01.844Z,24.00
2018-02-07T07:45:30.155Z,26.57
2018-02-07T07:47:57.694Z,26.50
2018-02-07T07:50:25.263Z,25.47
2018-02-07T07:52:52.801Z,24.80
2018-02-07T07:55:21.122Z,26.23
2018-02-07T07:57:48.674Z,23.77
2018-02-07T08:00:16.238Z,23.47
2018-02-07T08:02:43.774Z,23.50
2018-02-07T08:05:11.373Z,24.87
2018-02-07T08:07:38.909Z,25.13
2018-02-07T08:10:06.435Z,25.30
2018-02-07T08:12:33.994Z,24.93
2018-02-07T08:15:01.526Z,24.17
2018-02-07T08:17:29.850Z,23.30
2018-02-07T08:19:57.392Z,26.67
2018-02-07T08:22:24.931Z,25.20
2018-02-07T08:24:53.221Z,24.63
2018-02-07T08:27:20.770Z,27.90
2018-02-07T08:29:49.065Z,25.70
2018-02-07T08:32:16.611Z,25.10
2018-02-07T08:34:44.907Z,24.57
2018-02-07T08:37:13.228Z,25.17
2018-02-07T08:39:40.761Z,23.73
2018-02-07T08:42:08.321Z,24.10
2018-02-07T08:44:35.857Z,23.83
2018-02-07T08:47:03.420Z,22.10
2018-02-07T08:49:30.958Z,23.30
2018-02-07T08:51:58.514Z,22.77
2018-02-07T08:54:26.089Z,22.10
2018-02-07T08:56:53.698Z,25.37
2018-02-07T08:59:21.234Z,22.83
2018-02-07T09:01:48.765Z,23.23
2018-02-07T09:04:16.335Z,23.87
2018-02-07T09:06:43.877Z,21.27
2018-02-07T09:09:11.440Z,23.03
2018-02-07T09:11:39.020Z,23.10
2018-02-07T09:14:06.571Z,23.47
2018-02-07T09:16:34.122Z,22.57
2018-02-07T09:19:01.677Z,23.23
2018-02-07T09:21:29.207Z,23.27
2018-02-07T09:23:57.633Z,23.20
2018-02-07T09:26:25.178Z,24.97
2018-02-07T09:28:52.750Z,23.90
2018-02-07T09:31:20.273Z,24.07
2018-02-07T09:33:47.827Z,24.63
2018-02-07T09:36:16.122Z,24.93
2018-02-07T09:38:43.728Z,23.60
2018-02-07T09:41:11.253Z,25.60
2018-02-07T09:43:38.775Z,24.53
2018-02-07T09:46:07.081Z,24.77
2018-02-07T09:48:34.603Z,23.77
2018-02-07T09:51:02.920Z,24.00
2018-02-07T09:53:30.442Z,25.47
2018-02-07T09:55:58.777Z,24.60
2018-02-07T09:58:26.300Z,24.23
2018-02-07T10:00:53.846Z,24.03
2018-02-07T10:03:21.377Z,24.20
2018-02-07T10:05:48.944Z,25.67
2018-02-07T10:08:17.247Z,25.30
2018-02-07T10:10:44.789Z,25.80
2018-02-07T10:13:13.075Z,28.57
2018-02-07T10:15:40.623Z,25.80
2018-02-07T10:18:08.947Z,26.10
2018-02-07T10:20:36.561Z,27.90
2018-02-07T10:23:04.846Z,26.90
2018-02-07T10:25:32.373Z,27.17
2018-02-07T10:27:59.908Z,24.10
2018-02-07T10:30:27.436Z,25.10
2018-02-07T10:32:54.984Z,23.77
2018-02-07T10:35:22.534Z,24.03
2018-02-07T10:37:50.092Z,23.60
2018-02-07T10:40:17.635Z,25.17
2018-02-07T10:42:45.948Z,22.03
2018-02-07T10:45:13.472Z,23.60
2018-02-07T10:47:41.787Z,24.50
2018-02-07T10:50:09.308Z,24.03
2018-02-07T10:52:37.706Z,23.57
2018-02-07T10:55:05.232Z,22.97
2018-02-07T10:57:32.776Z,23.07
2018-02-07T11:00:00.297Z,23.30
2018-02-07T11:02:28.456Z,22.80
2018-02-07T11:04:55.976Z,24.20
2018-02-07T11:07:23.517Z,21.57
2018-02-07T11:09:51.093Z,23.07
2018-02-07T11:12:19.391Z,23.27
2018-02-07T11:14:47.700Z,22.57
2018-02-07T11:17:15.226Z,24.97
2018-02-07T11:19:43.550Z,23.80
2018-02-07T11:22:11.069Z,21.20
2018-02-07T11:24:38.625Z,23.93
2018-02-07T11:27:06.165Z,21.93
2018-02-07T11:29:34.480Z,23.63
2018-02-07T11:32:02.009Z,22.27
2018-02-07T11:34:30.317Z,24.57
2018-02-07T11:36:57.843Z,22.77
2018-02-07T11:39:26.161Z,22.00
2018-02-07T11:41:53.688Z,21.67
2018-02-07T11:44:21.242Z,23.60
2018-02-07T11:46:48.771Z,22.00
2018-02-07T11:49:16.323Z,22.57
2018-02-07T11:51:44.637Z,23.67
2018-02-07T11:54:12.239Z,23.07
2018-02-07T11:56:39.764Z,22.83
2018-02-07T11:59:07.294Z,21.43
2018-02-07T12:01:35.627Z,25.80
2018-02-07T12:04:03.154Z,22.20
2018-02-07T12:06:30.713Z,23.67
2018-02-07T12:08:58.232Z,22.27
2018-02-07T12:11:25.790Z,22.50
2018-02-07T12:13:54.118Z,23.73
2018-02-07T12:16:21.682Z,22.60
2018-02-07T12:18:49.221Z,21.97
2018-02-07T12:21:16.781Z,21.77
2018-02-07T12:23:44.317Z,24.20
2018-02-07T12:26:12.661Z,24.17
2018-02-07T12:28:40.192Z,24.63
2018-02-07T12:31:07.741Z,23.70
2018-02-07T12:33:35.270Z,22.97
2018-02-07T12:36:03.568Z,23.20
2018-02-07T12:38:31.133Z,25.30
2018-02-07T12:40:58.664Z,24.90
2018-02-07T12:43:26.980Z,24.73
2018-02-07T12:45:54.506Z,24.37
2018-02-07T12:48:22.836Z,27.03
2018-02-07T12:50:50.362Z,26.57
2018-02-07T12:53:17.913Z,24.47
2018-02-07T12:55:45.436Z,24.60
2018-02-07T12:58:12.988Z,25.30
2018-02-07T13:00:40.574Z,23.67
2018-02-07T13:03:08.126Z,24.27
2018-02-07T13:05:36.422Z,22.97
2018-02-07T13:08:04.041Z,22.83
2018-02-07T13:10:31.537Z,22.63
2018-02-07T13:12:59.138Z,22.00
2018-02-07T13:15:26.669Z,23.37
2018-02-07T13:17:54.202Z,22.77
2018-02-07T13:20:21.767Z,22.33
2018-02-07T13:22:49.306Z,23.80
2018-02-07T13:25:17.630Z,23.73
2018-02-07T13:27:45.165Z,23.57
2018-02-07T13:30:12.720Z,25.43
2018-02-07T13:32:40.256Z,20.30
2018-02-07T13:35:08.572Z,22.63
2018-02-07T13:37:36.110Z,23.53
2018-02-07T13:40:03.663Z,23.37
2018-02-07T13:42:31.188Z,24.73
2018-02-07T13:44:58.746Z,23.07
2018-02-07T13:47:26.286Z,23.23
2018-02-07T13:49:53.842Z,23.27
2018-02-07T13:52:21.360Z,25.17
2018-02-07T13:54:48.912Z,25.27
2018-02-07T13:57:17.201Z,22.70
2018-02-07T13:59:44.756Z,24.10
2018-02-07T14:02:12.299Z,24.30
2018-02-07T14:04:39.868Z,24.47
2018-02-07T14:07:08.168Z,24.77
2018-02-07T14:09:35.722Z,26.10
2018-02-07T14:12:03.257Z,25.90
2018-02-07T14:14:31.580Z,26.53
2018-02-07T14:16:59.100Z,25.93
2018-02-07T14:19:26.711Z,26.00
2018-02-07T14:21:54.240Z,25.03
2018-02-07T14:24:21.764Z,25.33
2018-02-07T14:26:50.093Z,24.80
2018-02-07T14:29:17.629Z,25.07
2018-02-07T14:31:45.195Z,26.60
2018-02-07T14:34:12.712Z,28.33
2018-02-07T14:36:41.044Z,27.47
2018-02-07T14:39:08.567Z,25.63
2018-02-07T14:41:36.131Z,27.17
2018-02-07T14:44:03.691Z,26.87
2018-02-07T14:46:31.249Z,27.70
2018-02-07T14:48:58.781Z,26.90
2018-02-07T14:51:27.094Z,23.97
2018-02-07T14:53:54.632Z,26.63
2018-02-07T14:56:22.192Z,26.33
2018-02-07T14:58:49.723Z,25.40
2018-02-07T15:01:18.037Z,25.27
2018-02-07T15:03:45.572Z,27.73
2018-02-07T15:06:13.889Z,26.00
2018-02-07T15:08:41.444Z,28.03
2018-02-07T15:11:09.037Z,26.90
2018-02-07T15:13:36.572Z,27.30
2018-02-07T15:16:04.084Z,25.70
2018-02-07T15:18:32.411Z,27.53
2018-02-07T15:20:59.938Z,25.90
2018-02-07T15:23:27.482Z,26.47
2018-02-07T15:25:55.033Z,29.73
2018-02-07T15:28:23.353Z,27.47
2018-02-07T15:30:50.881Z,26.87
2018-02-07T15:33:18.423Z,27.03
2018-02-07T15:35:46.724Z,26.67
2018-02-07T15:38:14.270Z,27.57
2018-02-07T15:40:41.800Z,25.10
2018-02-07T15:43:09.349Z,25.40
2018-02-07T15:45:36.919Z,27.30
2018-02-07T15:48:04.510Z,27.37
2018-02-07T15:50:32.032Z,27.27
2018-02-07T15:52:59.572Z,27.10
2018-02-07T15:55:27.088Z,27.00
2018-02-07T15:57:54.659Z,27.07
2018-02-07T16:00:22.181Z,25.97
2018-02-07T16:02:50.480Z,27.53
2018-02-07T16:05:18.894Z,26.93
2018-02-07T16:07:46.422Z,31.20
2018-02-07T16:10:13.985Z,32.03
2018-02-07T16:12:41.519Z,33.50
2018-02-07T16:15:09.833Z,31.97
2018-02-07T16:17:37.369Z,36.67
2018-02-07T16:20:04.929Z,34.53
2018-02-07T16:22:32.461Z,32.40
2018-02-07T16:25:00.778Z,32.43
2018-02-07T16:27:28.311Z,30.83
2018-02-07T16:29:55.869Z,31.87
2018-02-07T16:32:23.414Z,33.03
2018-02-07T16:34:51.738Z,31.80
2018-02-07T16:37:19.280Z,34.37
2018-02-07T16:39:46.844Z,32.77
2018-02-07T16:42:14.380Z,33.03
2018-02-07T16:44:41.955Z,33.87
2018-02-07T16:47:09.496Z,33.97
2018-02-07T16:49:37.054Z,32.10
2018-02-07T16:52:05.361Z,33.43
2018-02-07T16:54:32.884Z,32.10
2018-02-07T16:57:01.207Z,32.90
2018-02-07T17:02:23.514Z,29.70
2018-02-07T17:04:51.844Z,29.23
2018-02-07T17:07:19.382Z,31.60
2018-02-07T17:09:46.921Z,31.13
2018-02-07T17:12:14.478Z,31.73
2018-02-07T17:14:42.012Z,29.80
2018-02-07T17:17:09.565Z,33.67
2018-02-07T17:19:37.107Z,31.80
2018-02-07T17:22:04.661Z,31.53
2018-02-07T17:24:32.193Z,32.93
2018-02-07T17:27:00.515Z,31.03
2018-02-07T17:29:28.055Z,29.97
2018-02-07T17:31:55.601Z,34.43
2018-02-07T17:34:23.146Z,33.67
2018-02-07T17:36:50.711Z,32.33
2018-02-07T17:39:18.239Z,32.30
2018-02-07T17:41:45.788Z,32.87
2018-02-07T17:44:14.081Z,33.93
2018-02-07T17:46:41.637Z,34.20
2018-02-07T17:49:09.160Z,32.93
2018-02-07T17:51:36.706Z,32.93
2018-02-07T17:54:04.606Z,34.00
2018-02-07T17:56:32.159Z,32.43
2018-02-07T17:59:00.465Z,30.67
2018-02-07T18:01:28.819Z,34.83
2018-02-07T18:03:56.339Z,33.40
2018-02-07T18:06:23.865Z,32.80
2018-02-07T18:08:51.460Z,33.43
2018-02-07T18:11:18.982Z,32.63
2018-02-07T18:13:46.537Z,31.50
2018-02-07T18:16:14.070Z,32.80
2018-02-07T18:18:41.632Z,31.87
2018-02-07T18:21:09.174Z,32.70
2018-02-07T18:23:37.494Z,34.13
2018-02-07T18:26:05.029Z,32.63
2018-02-07T18:28:32.564Z,30.83
2018-02-07T18:31:00.847Z,30.63
2018-02-07T18:33:29.161Z,33.00
2018-02-07T18:35:57.836Z,33.37
2018-02-07T18:38:25.386Z,32.30
2018-02-07T18:40:52.922Z,33.30
2018-02-07T18:43:21.238Z,32.27
2018-02-07T18:45:48.777Z,32.07
2018-02-07T18:48:16.362Z,31.23
2018-02-07T18:50:43.894Z,33.00
2018-02-07T18:53:11.447Z,33.00
2018-02-07T18:55:38.976Z,33.70
2018-02-07T18:58:06.539Z,32.43
2018-02-07T19:00:35.920Z,32.23
2018-02-07T19:03:03.603Z,31.80
2018-02-07T19:05:31.908Z,30.93
2018-02-07T19:07:59.446Z,32.97
2018-02-07T19:10:27.782Z,33.20
2018-02-07T19:12:55.318Z,35.03
2018-02-07T19:15:22.869Z,31.67
2018-02-07T19:17:50.410Z,31.90
2018-02-07T19:20:17.977Z,33.37
2018-02-07T19:22:45.521Z,32.47
2018-02-07T19:25:13.129Z,31.47
2018-02-07T19:27:40.668Z,34.10
2018-02-07T19:30:08.219Z,33.03
2018-02-07T19:32:35.787Z,31.77
2018-02-07T19:35:03.328Z,34.07
2018-02-07T19:37:30.869Z,32.77
2018-02-07T19:39:59.200Z,31.77
2018-02-07T19:42:26.735Z,32.17
2018-02-07T19:44:54.285Z,34.13
2018-02-07T19:47:21.808Z,30.07
2018-02-07T19:49:49.386Z,31.80
2018-02-07T19:52:18.807Z,32.93
2018-02-07T19:54:46.412Z,31.63
2018-02-07T19:57:14.169Z,34.13
2018-02-07T19:59:42.518Z,34.27
2018-02-07T20:02:14.698Z,32.67
2018-02-07T20:04:48.089Z,30.83
2018-02-07T20:07:17.840Z,31.73
2018-02-07T20:09:46.535Z,32.93
2018-02-07T20:12:15.616Z,30.97
2018-02-07T20:14:46.044Z,31.83
2018-02-07T20:17:13.639Z,34.63
2018-02-07T20:19:41.258Z,30.83
2018-02-07T20:22:08.861Z,32.37
2018-02-07T20:24:37.791Z,30.03
2018-02-07T20:27:06.317Z,33.00
2018-02-07T20:29:35.056Z,33.73
2018-02-07T20:32:02.764Z,32.00
2018-02-07T20:34:31.149Z,30.47
2018-02-07T20:36:58.901Z,32.13
2018-02-07T20:39:28.501Z,33.03
2018-02-07T20:41:56.914Z,32.57
2018-02-07T20:44:24.586Z,32.27
2018-02-07T20:46:53.129Z,30.63
2018-02-07T20:49:21.851Z,31.10
2018-02-07T20:51:49.516Z,31.40
2018-02-07T20:54:17.398Z,33.17
2018-02-07T20:56:45.250Z,31.50
2018-02-07T20:59:12.918Z,30.90
2018-02-07T21:01:40.755Z,34.23
2018-02-07T21:04:09.386Z,34.40
2018-02-07T21:06:37.965Z,32.93
2018-02-07T21:09:05.674Z,35.37
2018-02-07T21:11:34.588Z,34.43
2018-02-07T21:14:02.199Z,34.87
2018-02-07T21:16:29.855Z,31.00
2018-02-07T21:18:57.616Z,34.03
2018-02-07T21:21:25.293Z,34.10
2018-02-07T21:23:52.933Z,33.43
2018-02-07T21:26:20.822Z,34.03
2018-02-07T21:28:49.178Z,32.00
2018-02-07T21:31:17.601Z,34.50
2018-02-07T21:33:45.370Z,33.90
2018-02-07T21:36:13.116Z,32.63
2018-02-07T21:38:40.766Z,34.47
2018-02-07T21:41:09.667Z,33.63
2018-02-07T21:43:37.492Z,32.47
2018-02-07T21:46:06.600Z,34.97
2018-02-07T21:48:35.033Z,33.77
2018-02-07T21:51:02.727Z,34.30
2018-02-07T21:53:30.583Z,32.83
2018-02-07T21:55:58.769Z,36.90
2018-02-07T21:58:26.980Z,32.17
2018-02-07T22:00:54.633Z,33.13
2018-02-07T22:03:22.343Z,35.60
2018-02-07T22:05:49.953Z,34.77
2018-02-07T22:08:17.592Z,34.37
2018-02-07T22:10:45.234Z,33.90
2018-02-07T22:13:12.921Z,35.10
2018-02-07T22:15:41.341Z,32.87
2018-02-07T22:18:08.993Z,34.00
2018-02-07T22:20:37.371Z,33.70
2018-02-07T22:23:05.043Z,35.03
2018-02-07T22:25:32.656Z,35.90
2018-02-07T22:28:01.057Z,34.97
2018-02-07T22:30:28.689Z,32.10
2018-02-07T22:32:56.283Z,36.80
2018-02-07T22:35:23.904Z,33.13
2018-02-07T22:37:51.544Z,31.20
2018-02-07T22:40:19.146Z,30.53
2018-02-07T22:42:46.776Z,33.10
2018-02-07T22:45:14.386Z,34.50
2018-02-07T22:47:41.975Z,33.83
2018-02-07T22:50:09.593Z,35.37
2018-02-07T22:52:38.057Z,33.77
2018-02-07T22:55:05.721Z,34.47
2018-02-07T22:57:33.714Z,35.43
2018-02-07T23:00:01.299Z,34.37
2018-02-07T23:02:28.922Z,32.57
2018-02-07T23:04:56.541Z,33.13
2018-02-07T23:07:24.177Z,36.63
2018-02-07T23:09:51.797Z,35.40
2018-02-07T23:12:20.181Z,35.13
2018-02-07T23:14:48.512Z,34.77
2018-02-07T23:17:16.135Z,36.97
2018-02-07T23:19:43.780Z,36.80
2018-02-07T23:22:12.155Z,35.37
2018-02-07T23:24:39.794Z,35.10
2018-02-07T23:27:07.436Z,35.07
2018-02-07T23:29:35.123Z,34.83
2018-02-07T23:32:03.475Z,33.80
2018-02-07T23:34:31.085Z,36.47
2018-02-07T23:36:58.710Z,33.80
2018-02-07T23:39:26.375Z,35.47
2018-02-07T23:41:53.973Z,34.20
2018-02-07T23:44:21.587Z,32.20
2018-02-07T23:46:49.250Z,34.53
2018-02-07T23:49:16.895Z,34.13
2018-02-07T23:51:44.519Z,33.77
2018-02-07T23:54:12.205Z,34.90
2018-02-07T23:56:39.824Z,34.93
2018-02-07T23:59:08.250Z,34.27
